Time;durP1;ratioP1;P1;durP2;ratioP2;P2;SDS_P1;SDS_P2;PMS_P1;PMS_P2;Temp;Humidity;BMP_temperature;BMP_pressure;BME280_temperature;BME280_humidity;BME280_pressure;Samples;Min_cycle;Max_cycle;Signal;HPM_P1;HPM_P2
2021/12/31 00:00:39;;;;;;;;;12.67;8.00;;;;;14.28;76.18;101840.56;5088575;27;45507;-79
2021/12/31 00:03:04;;;;;;;;;14.00;9.00;;;;;14.26;75.87;101845.84;5094721;27;45232;-77
2021/12/31 00:05:30;;;;;;;;;15.33;11.00;;;;;14.26;76.04;101845.84;5090538;27;45499;-78
2021/12/31 00:07:55;;;;;;;;;12.00;7.67;;;;;14.25;76.04;101841.41;5095055;27;46248;-77
2021/12/31 00:10:21;;;;;;;;;13.00;8.67;;;;;14.25;76.21;101837.88;5096313;27;45398;-78
2021/12/31 00:12:46;;;;;;;;;9.67;8.00;;;;;14.25;76.02;101836.09;5089036;27;46997;-78
2021/12/31 00:15:12;;;;;;;;;12.00;9.50;;;;;14.24;76.29;101839.63;5095548;27;45437;-77
2021/12/31 00:17:38;;;;;;;;;10.33;9.00;;;;;14.23;76.26;101826.34;5094789;27;46612;-77
2021/12/31 00:20:09;;;;;;;;;8.00;8.00;;;;;14.21;76.11;101818.34;5091271;27;45447;-77
2021/12/31 00:23:01;;;;;;;;;12.00;8.67;;;;;14.06;76.28;101795.16;5094118;27;45364;-78
2021/12/31 00:25:26;;;;;;;;;11.67;8.00;;;;;14.16;75.97;101818.28;5096030;27;45588;-77
2021/12/31 00:27:52;;;;;;;;;9.67;8.67;;;;;14.17;76.11;101816.53;5077564;27;47483;-77
2021/12/31 00:30:17;;;;;;;;;12.00;11.67;;;;;14.11;76.14;101814.72;5077362;27;45491;-79
2021/12/31 00:32:42;;;;;;;;;16.00;10.00;;;;;14.12;76.27;101816.47;5094718;27;45439;-79
2021/12/31 00:35:08;;;;;;;;;10.33;10.33;;;;;14.07;75.97;101814.66;5098092;27;45282;-79
2021/12/31 00:37:35;;;;;;;;;12.00;9.00;;;;;14.02;75.94;101819.91;5075889;27;46289;-78
2021/12/31 00:40:01;;;;;;;;;13.33;8.00;;;;;14.04;75.86;101827.88;5089099;27;45559;-77
2021/12/31 00:42:27;;;;;;;;;9.33;9.00;;;;;14.03;75.83;101824.31;5093003;27;45498;-78
2021/12/31 00:44:52;;;;;;;;;11.67;8.00;;;;;13.97;76.18;101815.41;5098493;27;56367;-78
2021/12/31 00:47:18;;;;;;;;;9.67;7.67;;;;;13.97;75.79;101826.91;5079958;27;48395;-78
2021/12/31 00:49:43;;;;;;;;;9.00;9.00;;;;;13.92;76.07;101819.75;5091155;27;45338;-78
2021/12/31 00:52:09;;;;;;;;;8.00;8.00;;;;;13.94;76.04;101825.97;5076609;28;45386;-79
2021/12/31 00:54:34;;;;;;;;;11.67;8.33;;;;;13.89;76.08;101820.59;5092157;27;49553;-77
2021/12/31 00:57:03;;;;;;;;;13.67;11.00;;;;;13.87;75.89;101817.03;5098586;27;47324;-78
2021/12/31 00:59:30;;;;;;;;;13.33;11.00;;;;;13.82;75.94;101814.31;5099041;27;45747;-77
2021/12/31 01:01:55;;;;;;;;;12.33;9.33;;;;;13.81;75.74;101815.19;5098940;27;45497;-77
2021/12/31 01:04:22;;;;;;;;;10.33;8.67;;;;;13.80;76.03;101817.84;5078323;27;45430;-78
2021/12/31 01:06:47;;;;;;;;;12.00;10.00;;;;;13.80;75.93;101815.19;5093546;27;47521;-77
2021/12/31 01:09:13;;;;;;;;;9.00;8.00;;;;;13.79;76.14;101818.69;5097797;27;45374;-78
2021/12/31 01:11:41;;;;;;;;;15.00;12.00;;;;;13.76;76.00;101810.69;5080444;27;45463;-78
2021/12/31 01:14:15;;;;;;;;;13.00;8.00;;;;;13.73;75.93;101811.53;5096887;27;45213;-77
2021/12/31 01:16:47;;;;;;;;;12.67;9.33;;;;;13.72;76.15;101800.91;5098450;27;46739;-78
2021/12/31 01:21:38;;;;;;;;;12.00;10.00;;;;;13.70;75.88;101806.19;5094587;27;45469;-78
2021/12/31 01:24:04;;;;;;;;;16.33;11.33;;;;;13.66;76.04;101798.16;5098203;27;50932;-77
2021/12/31 01:26:31;;;;;;;;;13.00;11.67;;;;;13.67;75.69;101810.56;5098587;27;46915;-78
2021/12/31 01:28:56;;;;;;;;;8.33;8.33;;;;;13.63;75.62;101806.97;5097532;27;45525;-77
2021/12/31 01:31:24;;;;;;;;;11.00;8.00;;;;;13.60;75.66;101815.78;5093920;27;51418;-77
2021/12/31 01:33:49;;;;;;;;;11.67;8.67;;;;;13.57;75.82;101813.06;5094839;27;45527;-78
2021/12/31 01:36:14;;;;;;;;;12.33;7.00;;;;;13.55;75.66;101822.78;5098433;27;46708;-77
2021/12/31 01:38:40;;;;;;;;;9.33;7.00;;;;;13.52;75.55;101829.81;5077636;27;62087;-78
2021/12/31 01:41:05;;;;;;;;;8.67;7.00;;;;;13.48;75.45;101831.53;5098485;27;45273;-78
2021/12/31 01:43:31;;;;;;;;;7.33;7.33;;;;;13.46;75.55;101830.59;5097022;27;45512;-78
2021/12/31 01:45:59;;;;;;;;;10.67;9.33;;;;;13.42;75.20;101820.81;5090760;27;51771;-78
2021/12/31 01:48:35;;;;;;;;;10.67;9.67;;;;;13.40;75.32;101825.22;5098688;27;45430;-78
2021/12/31 01:51:00;;;;;;;;;7.33;7.33;;;;;13.38;75.54;101826.97;5083154;27;45310;-78
2021/12/31 01:53:31;;;;;;;;;13.67;10.67;;;;;13.35;75.50;101835.75;5096906;27;45275;-78
2021/12/31 01:56:38;;;;;;;;;9.67;7.00;;;;;13.22;75.27;101814.31;5079922;27;46855;-79
2021/12/31 01:59:03;;;;;;;;;13.67;9.33;;;;;13.27;75.25;101833.84;5059576;27;45527;-78
2021/12/31 02:01:28;;;;;;;;;10.33;9.67;;;;;13.25;75.21;101825.84;5054105;27;52284;-78
2021/12/31 02:03:54;;;;;;;;;13.67;10.33;;;;;13.22;75.27;101824.94;5090438;27;49938;-77
2021/12/31 02:06:19;;;;;;;;;10.67;10.00;;;;;13.21;75.02;101828.38;5078614;27;63609;-78
2021/12/31 02:08:45;;;;;;;;;10.00;10.00;;;;;13.17;75.38;101822.16;5097431;27;45450;-78
2021/12/31 02:11:10;;;;;;;;;11.00;9.00;;;;;13.16;75.29;101812.44;5079176;27;53447;-78
2021/12/31 02:13:36;;;;;;;;;13.33;12.00;;;;;13.00;75.06;101792.72;5093559;27;53810;-79
2021/12/31 02:16:01;;;;;;;;;10.00;6.00;;;;;13.08;75.10;101809.63;5095337;27;46732;-79
2021/12/31 02:18:30;;;;;;;;;11.33;9.33;;;;;13.07;75.28;101815.81;5097400;27;45238;-77
2021/12/31 02:20:55;;;;;;;;;11.67;10.00;;;;;13.05;75.05;101808.72;5078915;27;45529;-78
2021/12/31 02:23:31;;;;;;;;;17.67;11.00;;;;;13.02;75.14;101803.34;5097127;27;46569;-78
2021/12/31 02:26:00;;;;;;;;;11.33;10.00;;;;;12.99;75.22;101812.13;5080406;27;46570;-77
2021/12/31 02:28:26;;;;;;;;;10.00;10.00;;;;;12.95;75.06;101812.97;5097864;27;45333;-77
2021/12/31 02:30:54;;;;;;;;;13.33;10.33;;;;;12.92;75.03;101804.94;5097358;27;45199;-77
2021/12/31 02:33:20;;;;;;;;;10.00;10.00;;;;;12.93;75.02;101812.03;5079586;27;45515;-77
2021/12/31 02:35:45;;;;;;;;;19.00;13.67;;;;;12.90;75.23;101800.50;5096552;27;59350;-77
2021/12/31 02:38:10;;;;;;;;;11.00;11.00;;;;;12.90;75.01;101805.81;5096247;27;62491;-79
2021/12/31 02:40:36;;;;;;;;;11.33;11.33;;;;;12.81;75.08;101794.16;5092302;27;45504;-79
2021/12/31 02:43:01;;;;;;;;;17.67;11.67;;;;;12.83;75.05;101787.13;5097088;27;45552;-78
2021/12/31 02:45:36;;;;;;;;;14.00;11.67;;;;;12.77;74.99;101776.41;5068994;28;47275;-77
2021/12/31 02:48:03;;;;;;;;;15.67;12.00;;;;;12.78;74.90;101795.84;5093280;27;45347;-78
2021/12/31 02:50:35;;;;;;;;;14.67;13.00;;;;;12.77;74.94;101787.03;5085196;27;45394;-77
2021/12/31 02:53:02;;;;;;;;;12.67;12.00;;;;;12.74;74.94;101794.03;5087179;27;45609;-77
2021/12/31 02:55:30;;;;;;;;;16.00;13.00;;;;;12.72;74.85;101780.75;5096659;27;46922;-77
2021/12/31 02:57:56;;;;;;;;;12.67;9.67;;;;;12.72;74.85;101777.22;5095418;27;45533;-77
2021/12/31 03:00:21;;;;;;;;;10.00;10.00;;;;;12.69;75.01;101779.81;5060782;27;45524;-78
2021/12/31 03:02:46;;;;;;;;;12.00;12.00;;;;;12.68;75.02;101786.00;5090312;27;45399;-78
2021/12/31 03:05:12;;;;;;;;;13.00;11.67;;;;;12.66;74.92;101785.94;5073672;27;58884;-77
2021/12/31 03:07:37;;;;;;;;;16.33;11.00;;;;;12.66;75.04;101782.41;5050943;27;45522;-78
2021/12/31 03:10:04;;;;;;;;;12.67;9.67;;;;;12.63;74.88;101788.56;5197723;22;45749;-77
2021/12/31 03:12:29;;;;;;;;;15.33;11.67;;;;;12.62;74.68;101792.03;5096241;27;45342;-77
2021/12/31 03:14:54;;;;;;;;;12.67;11.00;;;;;12.59;74.66;101800.84;5094774;27;58560;-76
2021/12/31 03:17:20;;;;;;;;;16.00;12.00;;;;;12.57;74.62;101804.34;5077931;27;58167;-77
2021/12/31 03:19:45;;;;;;;;;14.33;11.33;;;;;12.55;74.72;101811.34;5078349;27;47421;-79
2021/12/31 03:22:11;;;;;;;;;13.00;10.67;;;;;12.53;74.71;101818.41;5089861;27;47873;-78
2021/12/31 03:24:36;;;;;;;;;13.33;11.00;;;;;12.51;74.81;101821.00;5095997;27;46512;-78
2021/12/31 03:27:02;;;;;;;;;13.33;13.00;;;;;12.50;74.55;101826.28;5092469;27;60981;-77
2021/12/31 03:29:27;;;;;;;;;11.67;11.00;;;;;12.44;74.50;101826.16;5097064;27;45563;-77
2021/12/31 03:31:53;;;;;;;;;11.00;11.00;;;;;12.46;74.53;101841.19;5078311;27;48794;-78
2021/12/31 03:34:19;;;;;;;;;17.33;11.67;;;;;12.41;74.52;101834.94;5096382;27;46492;-77
2021/12/31 03:36:44;;;;;;;;;17.00;12.00;;;;;12.39;74.63;101814.59;5092170;27;45291;-77
2021/12/31 03:39:10;;;;;;;;;10.67;9.67;;;;;12.30;74.53;101786.16;5095733;27;45378;-80
2021/12/31 03:41:35;;;;;;;;;13.33;10.33;;;;;12.40;74.74;101796.06;5089703;27;55527;-80
2021/12/31 03:44:01;;;;;;;;;16.33;13.67;;;;;12.36;74.75;101783.66;5074278;28;45493;-78
2021/12/31 03:46:26;;;;;;;;;13.00;11.00;;;;;12.39;74.80;101793.38;5092859;27;45397;-78
2021/12/31 03:48:52;;;;;;;;;11.67;11.00;;;;;12.36;74.71;101799.53;5084611;27;51898;-77
2021/12/31 03:51:17;;;;;;;;;14.33;11.67;;;;;12.37;74.77;101796.03;5086345;27;51676;-77
2021/12/31 03:53:43;;;;;;;;;15.33;11.00;;;;;12.32;74.77;101772.09;5094520;27;51759;-78
2021/12/31 03:56:08;;;;;;;;;15.33;11.67;;;;;12.33;74.78;101773.88;5092898;27;45528;-77
2021/12/31 03:58:33;;;;;;;;;10.00;10.00;;;;;12.29;74.74;101757.88;5093001;27;45359;-78
2021/12/31 04:00:59;;;;;;;;;15.67;12.33;;;;;12.30;74.55;101763.25;5076358;27;45450;-77
2021/12/31 04:03:24;;;;;;;;;12.67;12.67;;;;;12.29;74.82;101774.66;5095864;27;59450;-77
2021/12/31 04:05:50;;;;;;;;;13.67;12.33;;;;;12.29;74.81;101765.84;5091640;27;45336;-78
2021/12/31 04:08:15;;;;;;;;;14.33;12.33;;;;;12.28;74.80;101757.00;5095693;27;45326;-77
2021/12/31 04:10:44;;;;;;;;;17.67;13.00;;;;;12.26;74.94;101758.75;5093020;27;45428;-78
2021/12/31 04:13:09;;;;;;;;;17.67;16.00;;;;;12.28;74.94;101769.34;5094800;27;48545;-77
2021/12/31 04:15:34;;;;;;;;;17.67;12.33;;;;;12.28;74.80;101775.53;5080042;27;57765;-78
2021/12/31 04:18:00;;;;;;;;;12.00;12.00;;;;;12.28;74.89;101769.34;5097410;27;51238;-79
2021/12/31 04:20:38;;;;;;;;;16.67;13.00;;;;;12.27;74.82;101759.63;5094700;27;45427;-77
2021/12/31 04:23:13;;;;;;;;;16.00;12.67;;;;;12.26;74.83;101750.78;5099491;27;47031;-79
2021/12/31 04:25:39;;;;;;;;;16.00;12.33;;;;;12.27;75.00;101747.28;5090170;27;45490;-77
2021/12/31 04:28:05;;;;;;;;;18.00;16.00;;;;;12.27;75.26;101741.97;5075121;27;45616;-78
2021/12/31 04:30:30;;;;;;;;;12.67;12.00;;;;;12.31;75.33;101745.59;5099052;27;45719;-77
2021/12/31 04:32:56;;;;;;;;;12.67;12.00;;;;;12.31;75.13;101740.28;5096221;27;45342;-78
2021/12/31 04:35:21;;;;;;;;;13.00;11.67;;;;;12.32;75.20;101742.06;5099270;27;45243;-78
2021/12/31 04:37:46;;;;;;;;;11.00;10.00;;;;;12.30;75.16;101731.47;5098560;27;54844;-78
2021/12/31 04:40:12;;;;;;;;;12.67;11.00;;;;;12.30;75.23;101730.53;5099054;27;45276;-78
2021/12/31 04:42:41;;;;;;;;;11.00;11.00;;;;;12.26;75.02;101734.91;5097889;27;63778;-77
2021/12/31 04:45:27;;;;;;;;;11.00;10.67;;;;;12.27;74.83;101744.63;5092649;27;45410;-77
2021/12/31 04:47:55;;;;;;;;;13.00;12.33;;;;;12.24;75.02;101752.50;5099619;27;45525;-77
2021/12/31 04:50:20;;;;;;;;;12.67;12.67;;;;;12.24;74.98;101756.91;5082717;27;45485;-78
2021/12/31 04:52:46;;;;;;;;;10.00;9.67;;;;;12.23;74.80;101760.44;5099144;27;49990;-78
2021/12/31 04:55:11;;;;;;;;;11.33;10.00;;;;;12.22;74.75;101759.53;5098091;27;51663;-78
2021/12/31 04:57:37;;;;;;;;;15.33;10.33;;;;;12.16;74.93;101759.44;5075750;27;45517;-80
2021/12/31 05:00:06;;;;;;;;;9.67;9.33;;;;;12.15;74.63;101757.66;5079993;27;46099;-77
2021/12/31 05:02:32;;;;;;;;;9.33;9.33;;;;;12.18;74.80;101757.69;5099045;27;47443;-78
2021/12/31 05:04:57;;;;;;;;;10.00;10.00;;;;;12.18;74.84;101748.84;5080508;27;45382;-78
2021/12/31 05:07:23;;;;;;;;;8.00;8.00;;;;;12.17;74.72;101763.84;5099420;27;45386;-79
2021/12/31 05:09:48;;;;;;;;;12.00;8.67;;;;;12.17;74.74;101768.25;5098863;27;45596;-77
2021/12/31 05:12:20;;;;;;;;;9.33;8.00;;;;;12.15;74.74;101768.25;5097582;27;60753;-78
2021/12/31 05:14:45;;;;;;;;;8.00;8.00;;;;;12.14;74.64;101771.72;5080578;27;45419;-78
2021/12/31 05:17:11;;;;;;;;;9.00;9.00;;;;;12.09;74.29;101764.56;5098492;27;45489;-78
2021/12/31 05:19:36;;;;;;;;;10.67;8.33;;;;;12.11;74.68;101753.16;5080129;27;45588;-79
2021/12/31 05:22:02;;;;;;;;;9.00;8.33;;;;;12.04;74.47;101744.19;5098844;27;45655;-77
2021/12/31 05:24:27;;;;;;;;;7.33;7.33;;;;;12.07;74.53;101760.13;5091640;27;45378;-77
2021/12/31 05:26:53;;;;;;;;;9.33;9.00;;;;;12.07;74.43;101751.28;5098111;27;56055;-78
2021/12/31 05:29:18;;;;;;;;;6.67;6.67;;;;;12.06;74.63;101746.88;5080929;27;45283;-77
2021/12/31 05:31:43;;;;;;;;;11.00;9.67;;;;;12.01;74.71;101738.84;5075905;27;62331;-77
2021/12/31 05:34:09;;;;;;;;;9.67;8.00;;;;;12.04;74.50;101740.66;5094845;27;45484;-78
2021/12/31 05:36:34;;;;;;;;;13.33;8.00;;;;;12.03;74.52;101734.44;5095362;27;45885;-78
2021/12/31 05:39:00;;;;;;;;;11.33;10.00;;;;;11.97;74.28;101726.41;5098585;27;45495;-78
2021/12/31 05:41:25;;;;;;;;;10.00;8.00;;;;;11.98;74.38;101720.22;5097508;27;59416;-77
2021/12/31 05:43:50;;;;;;;;;9.33;9.33;;;;;11.99;74.33;101719.41;5097547;27;55392;-78
2021/12/31 05:46:16;;;;;;;;;9.67;8.33;;;;;12.00;74.47;101721.19;5097929;27;51893;-77
2021/12/31 05:48:42;;;;;;;;;10.67;9.00;;;;;11.97;74.42;101705.22;5095387;27;45404;-77
2021/12/31 05:51:07;;;;;;;;;8.33;8.33;;;;;11.97;74.37;101702.56;5079108;27;46328;-77
2021/12/31 05:53:33;;;;;;;;;9.00;9.00;;;;;11.98;74.43;101704.34;5092638;27;45457;-78
2021/12/31 05:55:58;;;;;;;;;9.67;6.33;;;;;11.97;74.43;101704.34;5092781;27;46653;-78
2021/12/31 05:58:24;;;;;;;;;10.67;9.33;;;;;11.97;74.47;101715.81;5098064;27;45536;-77
2021/12/31 06:00:49;;;;;;;;;9.33;8.33;;;;;11.96;74.40;101719.31;5098205;27;46070;-77
2021/12/31 06:03:14;;;;;;;;;8.00;8.00;;;;;11.98;74.55;101720.22;5097513;27;60325;-78
2021/12/31 06:05:40;;;;;;;;;8.00;8.00;;;;;11.98;74.27;101732.56;5098525;27;45511;-78
2021/12/31 06:08:05;;;;;;;;;9.00;9.00;;;;;11.98;74.41;101752.00;5060520;27;53004;-78
2021/12/31 06:10:31;;;;;;;;;8.00;6.00;;;;;11.98;74.44;101746.69;5092328;27;59028;-78
2021/12/31 06:12:58;;;;;;;;;9.67;7.67;;;;;12.02;74.49;101752.97;5096719;27;45290;-78
2021/12/31 06:15:25;;;;;;;;;7.00;7.00;;;;;12.03;74.51;101752.97;5047352;27;45327;-77
2021/12/31 06:17:51;;;;;;;;;7.67;7.67;;;;;12.04;74.47;101759.19;5079675;27;45561;-78
2021/12/31 06:20:16;;;;;;;;;9.00;9.00;;;;;12.01;74.56;101737.94;5079558;27;45606;-77
2021/12/31 06:22:41;;;;;;;;;9.67;9.67;;;;;12.06;74.49;101741.56;5097122;27;45497;-77
2021/12/31 06:25:07;;;;;;;;;8.33;5.67;;;;;12.07;74.57;101735.41;5096617;27;54363;-78
2021/12/31 06:27:33;;;;;;;;;6.33;6.33;;;;;12.08;74.37;101734.53;5097037;27;45360;-77
2021/12/31 06:29:58;;;;;;;;;7.67;7.67;;;;;12.10;74.47;101730.19;5096928;27;45985;-79
2021/12/31 06:32:23;;;;;;;;;8.33;4.67;;;;;12.10;74.50;101739.91;5090160;27;45174;-77
2021/12/31 06:34:49;;;;;;;;;5.00;5.00;;;;;12.11;74.53;101739.91;5097428;27;54434;-77
2021/12/31 06:37:14;;;;;;;;;9.33;7.33;;;;;12.11;74.42;101737.25;5096912;27;53684;-79
2021/12/31 06:39:42;;;;;;;;;5.00;5.00;;;;;12.12;74.49;101735.50;5093333;27;59494;-77
2021/12/31 06:42:08;;;;;;;;;4.67;4.67;;;;;12.11;74.51;101729.31;5079152;27;45505;-77
2021/12/31 06:44:37;;;;;;;;;7.67;4.67;;;;;12.02;74.41;101721.19;5092432;27;45319;-78
2021/12/31 06:47:03;;;;;;;;;6.00;4.33;;;;;12.07;74.37;101743.34;5092810;27;45381;-77
2021/12/31 06:49:29;;;;;;;;;4.33;4.33;;;;;12.04;74.58;101744.19;5091013;27;46621;-77
2021/12/31 06:51:54;;;;;;;;;4.00;4.00;;;;;12.03;74.47;101744.16;5097251;27;45215;-77
2021/12/31 06:54:19;;;;;;;;;5.00;5.00;;;;;12.01;74.53;101728.25;5084738;27;57261;-77
2021/12/31 06:56:45;;;;;;;;;8.00;4.00;;;;;11.99;74.42;101719.41;5081857;27;52579;-78
2021/12/31 06:59:10;;;;;;;;;9.33;5.33;;;;;11.98;74.54;101725.53;5094599;27;58175;-78
2021/12/31 07:01:36;;;;;;;;;5.00;4.00;;;;;11.98;74.65;101735.22;5077462;27;58227;-78
2021/12/31 07:04:01;;;;;;;;;7.67;5.00;;;;;11.95;74.56;101746.66;5093615;27;55210;-77
2021/12/31 07:06:26;;;;;;;;;4.33;4.33;;;;;11.95;74.55;101759.91;5093337;27;47066;-76
2021/12/31 07:08:52;;;;;;;;;3.00;3.00;;;;;11.94;74.73;101755.47;5095062;27;46220;-78
2021/12/31 07:11:20;;;;;;;;;9.00;5.00;;;;;11.95;74.84;101759.91;5094445;27;55116;-76
2021/12/31 07:13:45;;;;;;;;;4.33;4.00;;;;;11.95;75.10;101767.84;5090147;27;45561;-76
2021/12/31 07:16:10;;;;;;;;;4.00;4.00;;;;;11.97;74.74;101781.09;5075435;27;53171;-78
2021/12/31 07:18:36;;;;;;;;;5.00;5.00;;;;;11.99;74.87;101777.63;5094133;27;60828;-78
2021/12/31 07:21:01;;;;;;;;;6.33;6.33;;;;;12.00;74.76;101792.63;5092253;27;58174;-77
2021/12/31 07:23:26;;;;;;;;;7.33;7.33;;;;;12.00;74.60;101779.41;5076314;27;46083;-77
2021/12/31 07:25:52;;;;;;;;;8.67;5.67;;;;;12.02;74.70;101782.97;5093419;27;47736;-77
2021/12/31 07:28:17;;;;;;;;;6.67;6.33;;;;;11.99;74.77;101767.03;5094378;27;46310;-78
2021/12/31 07:30:43;;;;;;;;;8.67;6.33;;;;;12.01;74.54;101761.78;5088338;27;57658;-76
2021/12/31 07:33:19;;;;;;;;;9.00;8.00;;;;;12.08;74.58;101787.50;5092037;27;45484;-78
2021/12/31 07:35:45;;;;;;;;;7.67;7.67;;;;;12.08;74.80;101782.19;5083873;27;45600;-77
2021/12/31 07:38:19;;;;;;;;;13.67;9.00;;;;;12.10;74.39;101764.59;5060737;27;48655;-77
2021/12/31 07:40:44;;;;;;;;;8.33;6.00;;;;;12.13;74.66;101763.75;5079038;27;45488;-76
2021/12/31 07:43:10;;;;;;;;;8.67;8.67;;;;;12.14;74.71;101753.19;5096751;27;45350;-77
2021/12/31 07:45:35;;;;;;;;;11.00;8.67;;;;;12.09;74.62;101741.66;5100208;27;45448;-79
2021/12/31 07:48:01;;;;;;;;;8.33;8.33;;;;;12.10;74.44;101751.38;5100749;27;50091;-77
2021/12/31 07:50:27;;;;;;;;;7.33;7.33;;;;;12.07;74.33;101744.25;5100483;27;45440;-76
2021/12/31 07:52:52;;;;;;;;;9.33;7.33;;;;;12.02;74.53;101759.13;5082260;27;45502;-79
2021/12/31 07:55:18;;;;;;;;;10.00;8.67;;;;;12.06;74.36;101774.22;5099113;27;55749;-82
2021/12/31 07:57:43;;;;;;;;;6.33;5.00;;;;;12.00;74.20;101767.94;5053241;28;56123;-81
2021/12/31 08:00:09;;;;;;;;;8.33;8.33;;;;;11.92;74.32;101754.53;5096939;27;57669;-82
2021/12/31 08:02:34;;;;;;;;;6.67;6.67;;;;;11.85;74.85;101768.50;5095432;27;45502;-81
2021/12/31 08:04:59;;;;;;;;;9.33;8.00;;;;;11.74;75.71;101792.06;5094636;27;49010;-79
2021/12/31 08:07:25;;;;;;;;;7.33;5.33;;;;;11.65;76.13;101785.66;5095380;27;59284;-82
2021/12/31 08:09:50;;;;;;;;;8.67;6.67;;;;;11.57;76.48;101798.75;5096238;27;56902;-82
2021/12/31 08:12:16;;;;;;;;;11.33;10.00;;;;;11.49;77.26;101805.59;5076953;27;51720;-82
2021/12/31 08:14:41;;;;;;;;;9.33;9.00;;;;;11.43;77.20;101813.38;5094463;27;45387;-79
2021/12/31 08:17:06;;;;;;;;;10.67;10.67;;;;;11.40;77.35;101808.00;5073421;27;51580;-81
2021/12/31 08:19:32;;;;;;;;;11.33;9.33;;;;;11.38;77.71;101791.22;5073003;27;58714;-79
2021/12/31 08:21:57;;;;;;;;;9.67;9.00;;;;;11.36;78.00;101803.53;5093441;27;55986;-79
2021/12/31 08:24:22;;;;;;;;;9.67;9.67;;;;;11.32;77.61;101799.91;5097978;27;52663;-76
2021/12/31 08:26:48;;;;;;;;;12.00;9.00;;;;;11.43;77.35;101800.16;5098709;27;48433;-77
2021/12/31 08:29:15;;;;;;;;;8.00;8.00;;;;;11.48;77.75;101788.84;5068489;27;57643;-77
2021/12/31 08:31:41;;;;;;;;;8.00;8.00;;;;;11.59;77.05;101781.13;5099609;27;45408;-77
2021/12/31 08:34:08;;;;;;;;;10.00;9.00;;;;;11.66;76.97;101790.09;5096221;27;45319;-78
2021/12/31 08:36:34;;;;;;;;;11.67;9.67;;;;;11.70;76.93;101808.72;5099104;27;46156;-77
2021/12/31 08:38:59;;;;;;;;;8.67;8.67;;;;;11.74;76.68;101804.41;5081185;27;45521;-77
2021/12/31 08:41:25;;;;;;;;;8.67;8.00;;;;;11.81;76.79;101795.72;5069611;28;53137;-76
2021/12/31 08:43:50;;;;;;;;;8.00;6.33;;;;;11.90;76.72;101787.13;5097914;27;45931;-78
2021/12/31 08:46:16;;;;;;;;;10.67;6.33;;;;;11.98;76.77;101783.75;5093919;27;46769;-76
2021/12/31 08:48:41;;;;;;;;;7.33;5.00;;;;;12.07;76.65;101799.84;5093661;27;45465;-79
2021/12/31 08:51:07;;;;;;;;;9.67;7.00;;;;;12.17;76.91;101805.31;5097711;27;45512;-77
2021/12/31 08:53:32;;;;;;;;;11.67;8.33;;;;;12.25;76.81;101811.66;5095161;27;45522;-79
2021/12/31 08:55:57;;;;;;;;;10.00;7.33;;;;;12.29;76.35;101817.03;5096696;27;59919;-77
2021/12/31 08:58:23;;;;;;;;;10.00;6.00;;;;;12.36;76.50;101833.03;5093936;27;59075;-80
2021/12/31 09:00:48;;;;;;;;;7.00;5.00;;;;;12.43;76.70;101840.28;5092354;27;45498;-81
2021/12/31 09:03:14;;;;;;;;;8.33;8.00;;;;;12.48;76.23;101843.91;5089456;27;45470;-79
2021/12/31 09:05:39;;;;;;;;;6.67;5.00;;;;;12.53;76.23;101831.63;5096181;27;62155;-77
2021/12/31 09:08:04;;;;;;;;;6.00;6.00;;;;;12.57;76.17;101847.63;5097954;27;45770;-78
2021/12/31 09:10:30;;;;;;;;;6.00;6.00;;;;;12.61;76.17;101847.66;5092890;27;52217;-77
2021/12/31 09:12:56;;;;;;;;;5.67;5.00;;;;;12.65;76.14;101833.63;5095315;27;51224;-76
2021/12/31 09:15:22;;;;;;;;;6.67;6.67;;;;;12.71;76.18;101831.06;5095274;27;46804;-75
2021/12/31 09:17:47;;;;;;;;;11.33;6.67;;;;;12.75;76.00;101830.28;5096908;27;45465;-77
2021/12/31 09:20:13;;;;;;;;;9.00;8.67;;;;;12.76;76.01;101835.59;5095027;27;46741;-75
2021/12/31 09:22:38;;;;;;;;;6.33;6.33;;;;;12.77;76.02;101825.88;5078734;27;45543;-73
2021/12/31 09:25:04;;;;;;;;;7.33;7.33;;;;;12.76;75.80;101829.41;5096192;27;61493;-76
2021/12/31 09:27:30;;;;;;;;;7.67;7.33;;;;;12.73;75.71;101829.34;5087544;27;45484;-75
2021/12/31 09:29:55;;;;;;;;;10.67;9.00;;;;;12.70;75.75;101846.09;5077427;27;45437;-75
2021/12/31 09:32:21;;;;;;;;;10.00;9.67;;;;;12.68;75.53;101831.94;5096451;27;45376;-77
2021/12/31 09:35:00;;;;;;;;;11.67;9.67;;;;;12.64;75.75;101839.78;5091423;27;45824;-78
2021/12/31 09:37:26;;;;;;;;;57.50;45.25;;;;;12.63;75.48;101836.25;5092257;27;45469;-75
2021/12/31 09:39:51;;;;;;;;;36.00;28.00;;;;;12.57;75.58;101852.03;5091969;27;45339;-75
2021/12/31 09:42:16;;;;;;;;;30.25;23.25;;;;;12.59;75.88;101861.78;5092512;27;51995;-75
2021/12/31 09:44:44;;;;;;;;;12.00;12.00;;;;;12.55;75.94;101864.34;5087042;27;50820;-74
2021/12/31 09:47:12;;;;;;;;;15.33;11.33;;;;;12.56;75.78;101874.97;5079419;27;45359;-74
2021/12/31 09:49:38;;;;;;;;;12.67;12.00;;;;;12.57;75.95;101881.19;5077760;27;45486;-74
2021/12/31 09:52:04;;;;;;;;;10.00;9.00;;;;;12.57;75.82;101889.13;5078640;27;45461;-75
2021/12/31 09:54:29;;;;;;;;;12.00;11.00;;;;;12.54;75.68;101873.16;5089934;27;45355;-76
2021/12/31 09:56:55;;;;;;;;;11.00;9.67;;;;;12.54;76.07;101875.81;5097059;27;45585;-75
2021/12/31 09:59:23;;;;;;;;;9.00;8.00;;;;;12.60;75.69;101883.88;5087543;27;45527;-77
2021/12/31 10:01:51;;;;;;;;;9.33;7.67;;;;;12.63;75.74;101886.59;5092696;27;45383;-74
2021/12/31 10:04:17;;;;;;;;;10.00;9.33;;;;;12.65;75.76;101878.66;5089125;27;46545;-77
2021/12/31 10:07:05;;;;;;;;;8.67;8.67;;;;;12.71;75.63;101897.31;5094141;27;57751;-78
2021/12/31 10:09:31;;;;;;;;;10.00;9.67;;;;;12.71;75.51;101892.03;5091760;27;45532;-78
2021/12/31 10:11:57;;;;;;;;;10.00;9.33;;;;;12.78;75.57;101899.22;5072938;27;45644;-75
2021/12/31 10:14:35;;;;;;;;;11.00;11.00;;;;;12.83;75.99;101910.81;5094735;27;53167;-78
2021/12/31 10:17:01;;;;;;;;;10.67;9.00;;;;;12.86;75.84;101924.13;5095254;27;45454;-75
2021/12/31 10:19:26;;;;;;;;;7.67;7.67;;;;;12.92;75.68;101926.88;5097143;27;45514;-75
2021/12/31 10:21:54;;;;;;;;;12.00;9.33;;;;;12.96;75.29;101925.19;5089015;27;52189;-75
2021/12/31 10:24:23;;;;;;;;;10.00;10.00;;;;;13.02;75.17;101915.59;5097538;27;45746;-78
2021/12/31 10:26:52;;;;;;;;;7.33;7.33;;;;;13.07;75.24;101913.91;5078660;27;46344;-75
2021/12/31 10:29:18;;;;;;;;;7.33;7.00;;;;;13.09;75.16;101906.88;5096912;27;45474;-77
2021/12/31 10:31:45;;;;;;;;;9.67;6.00;;;;;13.10;74.63;101919.28;5073784;27;45449;-77
2021/12/31 10:34:32;;;;;;;;;6.00;6.00;;;;;13.18;74.85;101942.41;5097496;27;46515;-74
2021/12/31 10:37:02;;;;;;;;;7.33;7.00;;;;;13.21;74.46;101945.09;5098456;27;45442;-74
2021/12/31 10:39:29;;;;;;;;;9.00;7.00;;;;;13.26;74.64;101954.06;5075971;27;45644;-74
2021/12/31 10:42:05;;;;;;;;;10.00;10.00;;;;;13.27;74.31;101972.66;5095898;27;45603;-75
2021/12/31 10:44:52;;;;;;;;;13.00;9.67;;;;;13.34;74.51;101984.28;5089338;27;45532;-74
2021/12/31 10:47:29;;;;;;;;;11.00;11.00;;;;;13.38;74.24;101980.81;5096173;27;45335;-75
2021/12/31 10:50:00;;;;;;;;;9.33;8.00;;;;;13.44;74.46;101986.22;5078358;27;45474;-76
2021/12/31 10:52:36;;;;;;;;;12.00;11.00;;;;;13.45;74.17;101980.06;5090240;27;45601;-75
2021/12/31 10:55:14;;;;;;;;;10.33;8.67;;;;;13.53;74.58;101985.47;5094602;27;47573;-75
2021/12/31 10:57:40;;;;;;;;;9.33;6.67;;;;;13.57;74.35;101974.06;5096933;27;45305;-77
2021/12/31 11:00:06;;;;;;;;;9.00;6.00;;;;;13.60;74.09;101961.75;5077152;27;45786;-77
2021/12/31 11:02:32;;;;;;;;;11.33;5.00;;;;;13.59;74.01;101965.28;5075049;27;45580;-74
2021/12/31 11:04:58;;;;;;;;;6.33;5.00;;;;;13.68;73.67;101976.88;5078922;27;46389;-75
2021/12/31 11:07:24;;;;;;;;;5.33;5.33;;;;;13.74;73.88;101990.25;5070686;27;45492;-78
2021/12/31 11:09:49;;;;;;;;;4.00;4.00;;;;;13.75;73.88;101973.50;5061235;27;54479;-74
2021/12/31 11:12:15;;;;;;;;;6.00;5.00;;;;;13.81;73.88;101969.16;5072610;27;45995;-74
2021/12/31 11:14:40;;;;;;;;;6.67;4.00;;;;;13.86;73.79;101969.25;5046602;27;46018;-74
2021/12/31 11:17:06;;;;;;;;;3.67;3.67;;;;;13.89;73.80;101967.50;5053971;28;51466;-74